Time;durP1;ratioP1;P1;durP2;ratioP2;P2;SDS_P1;SDS_P2;PMS_P1;PMS_P2;Temp;Humidity;BMP_temperature;BMP_pressure;BME280_temperature;BME280_humidity;BME280_pressure;Samples;Min_cycle;Max_cycle;Signal;HPM_P1;HPM_P2
2022/05/02 00:00:58;;;;;;;11.57;8.23;;;11.30;99.90;;;;;;5070648;28;20213;-51
2022/05/02 00:03:26;;;;;;;14.40;8.50;;;11.30;99.90;;;;;;5057595;28;20213;-52
2022/05/02 00:05:56;;;;;;;13.03;8.23;;;11.30;99.90;;;;;;5050894;28;20237;-52
2022/05/02 00:08:25;;;;;;;14.03;8.80;;;11.30;99.90;;;;;;5051888;28;20221;-51
2022/05/02 00:10:53;;;;;;;13.27;9.17;;;11.20;99.90;;;;;;5071196;28;20213;-51
2022/05/02 00:13:21;;;;;;;12.47;8.40;;;11.20;99.90;;;;;;5071150;28;20213;-51
2022/05/02 00:15:49;;;;;;;13.63;8.70;;;11.10;99.90;;;;;;5071043;28;20221;-51
2022/05/02 00:18:17;;;;;;;17.47;9.17;;;11.10;99.90;;;;;;5071067;28;20201;-52
2022/05/02 00:20:45;;;;;;;14.10;8.47;;;11.00;99.90;;;;;;5070983;28;20723;-51
2022/05/02 00:23:15;;;;;;;13.13;9.20;;;11.00;99.90;;;;;;5070503;28;20205;-51
2022/05/02 00:25:43;;;;;;;11.40;8.57;;;11.00;99.90;;;;;;5070885;28;20229;-51
2022/05/02 00:28:15;;;;;;;9.97;8.30;;;10.90;99.90;;;;;;5070739;28;20224;-51
2022/05/02 00:30:44;;;;;;;13.90;9.17;;;10.90;99.90;;;;;;5070683;28;20554;-53
2022/05/02 00:33:12;;;;;;;14.03;9.77;;;10.90;99.90;;;;;;5070117;28;20204;-51
2022/05/02 00:35:40;;;;;;;11.83;8.40;;;10.80;99.90;;;;;;5070772;28;20224;-51
2022/05/02 00:38:08;;;;;;;11.80;9.47;;;10.70;99.90;;;;;;5071011;28;20200;-51
2022/05/02 00:40:38;;;;;;;11.70;9.20;;;10.70;99.90;;;;;;5070389;28;20747;-51
2022/05/02 00:43:06;;;;;;;13.73;8.90;;;10.70;99.90;;;;;;5070685;28;20241;-51
2022/05/02 00:45:37;;;;;;;14.90;9.03;;;10.60;99.90;;;;;;5070679;28;20225;-51
2022/05/02 00:48:06;;;;;;;16.33;9.70;;;10.60;99.90;;;;;;5070855;28;20746;-51
2022/05/02 00:50:37;;;;;;;12.53;8.70;;;10.50;99.90;;;;;;5070550;28;20681;-51
2022/05/02 00:53:07;;;;;;;12.00;9.00;;;10.40;99.90;;;;;;5070550;28;20262;-51
2022/05/02 00:55:37;;;;;;;13.67;8.90;;;10.40;99.90;;;;;;5070522;28;20229;-51
2022/05/02 00:58:06;;;;;;;12.83;9.17;;;10.40;99.90;;;;;;5070606;28;20266;-51
2022/05/02 01:00:36;;;;;;;14.77;9.53;;;10.30;99.90;;;;;;5070950;28;20235;-51
2022/05/02 01:03:06;;;;;;;12.87;9.00;;;10.30;99.90;;;;;;5070323;28;20246;-51
2022/05/02 01:07:08;;;;;;;15.77;9.97;;;10.40;99.90;;;;;;5070936;28;20228;-51
2022/05/02 01:08:28;;;;;;;12.37;9.00;;;10.40;99.90;;;;;;5074153;28;20315;-50
2022/05/02 01:10:58;;;;;;;12.90;9.80;;;10.40;99.90;;;;;;5074565;28;20205;-51
2022/05/02 01:13:34;;;;;;;19.20;10.03;;;10.40;99.90;;;;;;5073911;28;20193;-51
2022/05/02 01:16:09;;;;;;;12.17;9.77;;;10.40;99.90;;;;;;5074125;28;21014;-51
2022/05/02 01:18:37;;;;;;;15.63;9.23;;;10.40;99.90;;;;;;5074639;28;20258;-51
2022/05/02 01:21:11;;;;;;;15.17;9.60;;;10.40;99.90;;;;;;5074191;28;20204;-51
2022/05/02 01:23:39;;;;;;;11.73;9.83;;;10.40;99.90;;;;;;5074412;28;20193;-51
2022/05/02 01:26:08;;;;;;;14.90;10.33;;;10.30;99.90;;;;;;5073971;28;20224;-51
2022/05/02 01:28:43;;;;;;;16.97;9.53;;;10.30;99.90;;;;;;5074054;28;20224;-51
2022/05/02 01:31:12;;;;;;;13.33;10.10;;;10.30;99.90;;;;;;5073854;28;20261;-51
2022/05/02 01:33:40;;;;;;;11.13;9.90;;;10.20;99.90;;;;;;5073757;28;20212;-51
2022/05/02 01:36:10;;;;;;;12.83;9.47;;;10.20;99.90;;;;;;5074321;28;20235;-51
2022/05/02 01:38:39;;;;;;;12.40;10.07;;;10.20;99.90;;;;;;5074021;28;20662;-51
2022/05/02 01:41:08;;;;;;;14.40;9.80;;;10.10;99.90;;;;;;5073810;28;20207;-51
2022/05/02 01:43:37;;;;;;;14.70;10.40;;;10.00;99.90;;;;;;5073051;28;20260;-52
2022/05/02 01:46:07;;;;;;;13.10;10.30;;;10.00;99.90;;;;;;5072590;28;20217;-51
2022/05/02 01:48:36;;;;;;;13.33;10.23;;;9.90;99.90;;;;;;5073894;28;20251;-51
2022/05/02 01:51:04;;;;;;;15.43;9.97;;;9.90;99.90;;;;;;5073910;28;20243;-51
2022/05/02 01:53:34;;;;;;;16.27;10.07;;;9.90;99.90;;;;;;5072854;28;20209;-51
2022/05/02 01:56:02;;;;;;;13.50;10.53;;;9.90;99.90;;;;;;5073707;28;20229;-51
2022/05/02 01:58:30;;;;;;;15.90;10.93;;;9.90;99.90;;;;;;5073646;28;20238;-51
2022/05/02 02:00:58;;;;;;;12.10;10.30;;;9.90;99.90;;;;;;5073455;28;20250;-51
2022/05/02 02:03:27;;;;;;;15.93;11.23;;;9.80;99.90;;;;;;5072822;28;20209;-52
2022/05/02 02:05:54;;;;;;;16.50;11.03;;;9.80;99.90;;;;;;5073236;28;20241;-51
2022/05/02 02:08:24;;;;;;;14.57;11.00;;;9.80;99.90;;;;;;5072636;28;20783;-51
2022/05/02 02:10:56;;;;;;;15.23;10.77;;;9.80;99.90;;;;;;5053379;28;20706;-52
2022/05/02 02:13:25;;;;;;;14.37;11.07;;;9.80;99.90;;;;;;5052835;28;20263;-52
2022/05/02 02:15:53;;;;;;;15.17;11.43;;;9.80;99.90;;;;;;5053324;28;20371;-52
2022/05/02 02:18:21;;;;;;;15.33;11.00;;;9.80;99.90;;;;;;5052163;28;20201;-52
2022/05/02 02:20:53;;;;;;;12.37;10.83;;;9.80;99.90;;;;;;5053483;28;20205;-52
2022/05/02 02:23:22;;;;;;;12.23;10.73;;;9.80;99.90;;;;;;5052492;28;20209;-52
2022/05/02 02:25:50;;;;;;;16.67;10.60;;;9.90;99.90;;;;;;5053447;28;20222;-52
2022/05/02 02:28:20;;;;;;;12.93;10.33;;;9.80;99.90;;;;;;5052786;28;20225;-52
2022/05/02 02:30:48;;;;;;;12.03;10.73;;;9.90;99.90;;;;;;5060843;28;20262;-52
2022/05/02 02:33:15;;;;;;;15.63;10.97;;;9.90;99.90;;;;;;5071571;28;20200;-52
2022/05/02 02:35:43;;;;;;;15.33;11.40;;;9.90;99.90;;;;;;5071789;28;20221;-52
2022/05/02 02:38:12;;;;;;;16.33;10.77;;;9.80;99.90;;;;;;5071864;28;20201;-52
2022/05/02 02:40:41;;;;;;;17.63;11.03;;;9.90;99.90;;;;;;5071630;28;20282;-52
2022/05/02 02:43:10;;;;;;;12.03;10.67;;;9.90;99.90;;;;;;5071070;28;20205;-52
2022/05/02 02:45:39;;;;;;;14.80;10.40;;;9.90;99.90;;;;;;5071741;28;20271;-52
2022/05/02 02:48:08;;;;;;;12.50;10.63;;;9.90;99.90;;;;;;5072636;28;20673;-52
2022/05/02 02:50:37;;;;;;;13.30;10.57;;;9.90;99.90;;;;;;5072874;28;20264;-51
2022/05/02 02:53:05;;;;;;;14.40;10.90;;;9.90;99.90;;;;;;5072128;28;20242;-52
2022/05/02 02:55:33;;;;;;;14.40;11.33;;;10.00;99.90;;;;;;5072241;28;20567;-52
2022/05/02 02:58:02;;;;;;;16.10;10.93;;;10.00;99.90;;;;;;5070866;28;20263;-52
2022/05/02 03:00:30;;;;;;;14.43;11.20;;;10.00;99.90;;;;;;5072425;28;20202;-52
2022/05/02 03:03:00;;;;;;;14.60;10.67;;;10.00;99.90;;;;;;5071798;28;20293;-52
2022/05/02 03:08:14;;;;;;;13.97;10.90;;;10.00;99.90;;;;;;5071727;28;20233;-52
2022/05/02 03:10:42;;;;;;;17.67;10.37;;;10.00;99.90;;;;;;5072004;28;20239;-52
2022/05/02 03:13:10;;;;;;;15.90;10.33;;;10.00;99.90;;;;;;5071703;28;20746;-51
2022/05/02 03:15:38;;;;;;;15.50;10.37;;;10.00;99.90;;;;;;5071711;28;20633;-52
2022/05/02 03:18:09;;;;;;;14.93;10.80;;;10.10;99.90;;;;;;5072037;28;20274;-52
2022/05/02 03:20:37;;;;;;;15.43;10.53;;;10.20;99.90;;;;;;5071796;28;20201;-51
2022/05/02 03:23:06;;;;;;;14.23;9.83;;;10.20;99.90;;;;;;5071477;28;20208;-51
2022/05/02 03:25:34;;;;;;;14.47;9.87;;;10.20;99.90;;;;;;5071769;28;21549;-50
2022/05/02 03:28:02;;;;;;;13.90;10.40;;;10.20;99.90;;;;;;5071941;28;20205;-51
2022/05/02 03:30:30;;;;;;;14.53;10.33;;;10.20;99.90;;;;;;5071701;28;20428;-52
2022/05/02 03:32:58;;;;;;;16.67;10.50;;;10.20;99.90;;;;;;5071122;28;20205;-51
2022/05/02 03:35:28;;;;;;;13.43;9.80;;;10.30;99.90;;;;;;5071799;28;20606;-51
2022/05/02 03:37:56;;;;;;;11.40;9.37;;;10.30;99.90;;;;;;5071421;28;20761;-52
2022/05/02 03:40:24;;;;;;;13.27;9.80;;;10.30;99.90;;;;;;5071885;28;20205;-51
2022/05/02 03:42:52;;;;;;;13.03;9.87;;;10.30;99.90;;;;;;5071424;28;20250;-51
2022/05/02 03:45:21;;;;;;;14.57;10.33;;;10.40;99.90;;;;;;5063521;28;20194;-52
2022/05/02 03:47:49;;;;;;;10.97;9.73;;;10.30;99.90;;;;;;5051485;28;20266;-52
2022/05/02 03:50:17;;;;;;;14.33;10.00;;;10.40;99.90;;;;;;5052553;28;20287;-51
2022/05/02 03:52:47;;;;;;;15.00;9.83;;;10.40;99.90;;;;;;5070377;28;20666;-52
2022/05/02 03:55:15;;;;;;;13.37;9.80;;;10.40;99.90;;;;;;5071169;28;20258;-52
2022/05/02 03:57:43;;;;;;;12.47;9.63;;;10.40;99.90;;;;;;5071508;28;20262;-52
2022/05/02 04:00:12;;;;;;;11.77;9.50;;;10.40;99.90;;;;;;5070747;28;20254;-52
2022/05/02 04:02:40;;;;;;;14.70;10.37;;;10.40;99.90;;;;;;5069887;28;20276;-52
2022/05/02 04:05:09;;;;;;;12.33;9.53;;;10.40;99.90;;;;;;5067715;28;20197;-52
2022/05/02 04:07:37;;;;;;;16.00;10.20;;;10.40;99.90;;;;;;5070017;28;20713;-52
2022/05/02 04:10:08;;;;;;;14.07;9.60;;;10.40;99.90;;;;;;5070901;28;20228;-52
2022/05/02 04:12:36;;;;;;;11.97;9.50;;;10.50;99.90;;;;;;5051665;28;20241;-52
2022/05/02 04:15:06;;;;;;;14.57;9.77;;;10.50;99.90;;;;;;5051070;28;20638;-51
2022/05/02 04:17:34;;;;;;;14.30;10.07;;;10.60;99.90;;;;;;5054264;28;20225;-51
2022/05/02 04:20:03;;;;;;;13.93;9.67;;;10.50;99.90;;;;;;5069069;28;20201;-52
2022/05/02 04:22:31;;;;;;;12.73;9.57;;;10.50;99.90;;;;;;5068964;28;20201;-52
2022/05/02 04:24:59;;;;;;;11.33;9.87;;;10.50;99.90;;;;;;5069353;28;20258;-51
2022/05/02 04:27:29;;;;;;;13.03;9.60;;;10.50;99.90;;;;;;5069214;28;20253;-51
2022/05/02 04:29:57;;;;;;;12.80;9.20;;;10.50;99.90;;;;;;5069701;28;20220;-52
2022/05/02 04:32:25;;;;;;;14.67;9.50;;;10.50;99.90;;;;;;5069365;28;20678;-52
2022/05/02 04:34:55;;;;;;;14.07;9.37;;;10.60;99.90;;;;;;5069623;28;20213;-52
2022/05/02 04:37:24;;;;;;;11.20;8.97;;;10.60;99.90;;;;;;5067012;28;20415;-52
2022/05/02 04:39:55;;;;;;;14.20;9.67;;;10.60;99.90;;;;;;5063877;28;20220;-52
2022/05/02 04:42:24;;;;;;;12.10;9.70;;;10.60;99.90;;;;;;5063299;28;20263;-52
2022/05/02 04:44:54;;;;;;;15.37;9.97;;;10.60;99.90;;;;;;5068289;28;20578;-51
2022/05/02 04:47:22;;;;;;;12.73;9.77;;;10.50;99.90;;;;;;5069634;28;20225;-52
2022/05/02 04:49:56;;;;;;;12.10;8.70;;;10.60;99.90;;;;;;5066676;28;20265;-52
2022/05/02 04:52:25;;;;;;;10.50;8.70;;;10.50;99.90;;;;;;5066520;28;20202;-51
2022/05/02 04:54:53;;;;;;;13.13;9.80;;;10.60;99.90;;;;;;5067076;28;20255;-52
2022/05/02 04:57:21;;;;;;;11.50;9.60;;;10.50;99.90;;;;;;5049915;28;20229;-52
2022/05/02 04:59:49;;;;;;;12.70;8.80;;;10.50;99.90;;;;;;5049744;28;20619;-52
2022/05/02 05:02:19;;;;;;;13.43;9.23;;;10.60;99.90;;;;;;5049040;28;20694;-52
2022/05/02 05:04:47;;;;;;;14.60;9.67;;;10.60;99.90;;;;;;5067649;28;20284;-52
2022/05/02 05:07:16;;;;;;;12.77;9.50;;;10.70;99.90;;;;;;5052947;28;20713;-52
2022/05/02 05:09:44;;;;;;;9.90;8.90;;;10.70;99.90;;;;;;5060574;28;20232;-52
2022/05/02 05:12:23;;;;;;;12.77;9.57;;;10.80;99.90;;;;;;5068780;28;20209;-52
2022/05/02 05:17:58;;;;;;;13.20;9.27;;;11.00;99.90;;;;;;5070124;28;20208;-52
2022/05/02 05:20:39;;;;;;;13.10;8.87;;;11.00;99.90;;;;;;5069490;28;20209;-52
2022/05/02 05:23:35;;;;;;;11.73;8.73;;;11.10;99.90;;;;;;5067602;28;20250;-51
2022/05/02 05:26:14;;;;;;;12.17;8.50;;;11.20;99.90;;;;;;5058430;28;20229;-52
2022/05/02 05:28:52;;;;;;;12.30;8.80;;;11.80;99.90;;;;;;5067544;28;20193;-52
2022/05/02 05:31:32;;;;;;;10.43;8.60;;;12.50;99.90;;;;;;5067388;28;20644;-52
2022/05/02 05:34:16;;;;;;;10.23;8.70;;;12.90;99.90;;;;;;5062918;28;20232;-52
2022/05/02 05:37:09;;;;;;;11.10;8.03;;;12.90;99.90;;;;;;5065511;28;20231;-52
2022/05/02 05:39:45;;;;;;;12.73;8.50;;;12.90;99.90;;;;;;5035805;28;20217;-52
2022/05/02 05:42:22;;;;;;;10.47;8.13;;;12.80;99.90;;;;;;5066627;28;20193;-53
2022/05/02 05:44:59;;;;;;;9.40;8.17;;;12.70;99.90;;;;;;5067418;28;20209;-52
2022/05/02 05:47:47;;;;;;;13.63;8.43;;;12.70;99.90;;;;;;5068122;28;20220;-52
2022/05/02 05:50:22;;;;;;;12.70;8.67;;;12.70;99.90;;;;;;5067288;28;20743;-52
2022/05/02 05:53:03;;;;;;;10.87;8.17;;;12.60;99.90;;;;;;5067945;28;21049;-52
2022/05/02 05:55:46;;;;;;;10.07;8.03;;;12.50;99.90;;;;;;5071831;28;20761;-52
2022/05/02 05:58:20;;;;;;;12.67;8.23;;;12.50;99.90;;;;;;5073392;28;20205;-52
2022/05/02 06:00:52;;;;;;;14.27;8.27;;;12.40;99.90;;;;;;5072966;28;20209;-52
2022/05/02 06:03:25;;;;;;;12.37;8.03;;;12.50;99.90;;;;;;5071831;28;20258;-52
2022/05/02 06:05:55;;;;;;;13.27;9.20;;;12.50;99.90;;;;;;5072858;28;20233;-52
2022/05/02 06:08:27;;;;;;;12.57;8.60;;;12.60;99.90;;;;;;5071938;28;20625;-52
2022/05/02 06:10:58;;;;;;;9.27;8.17;;;12.70;99.90;;;;;;5052695;28;20649;-52
2022/05/02 06:13:32;;;;;;;11.70;8.40;;;12.70;99.90;;;;;;5052000;28;20210;-52
2022/05/02 06:19:10;;;;;;;12.00;7.93;;;13.20;99.90;;;;;;5055650;28;20670;-52
2022/05/02 06:21:42;;;;;;;10.67;7.33;;;13.60;99.90;;;;;;5070615;28;20247;-51
2022/05/02 06:24:12;;;;;;;14.20;8.07;;;14.00;99.90;;;;;;5062662;28;20276;-52
2022/05/02 06:26:41;;;;;;;9.90;7.83;;;14.30;99.90;;;;;;5053032;28;20225;-52
2022/05/02 06:29:10;;;;;;;9.87;7.43;;;14.70;99.90;;;;;;5073731;28;20213;-51
2022/05/02 06:31:40;;;;;;;9.57;7.27;;;14.80;99.90;;;;;;5072079;28;20232;-51
2022/05/02 06:34:09;;;;;;;11.47;7.90;;;14.80;99.90;;;;;;5072076;28;20848;-52
2022/05/02 06:36:49;;;;;;;14.00;8.07;;;14.90;99.90;;;;;;5074055;28;20228;-51
2022/05/02 06:39:26;;;;;;;10.15;7.95;;;15.10;99.90;;;;;;5093139;28;20270;-52
2022/05/02 06:42:10;;;;;;;9.40;6.97;;;15.10;99.90;;;;;;5092146;28;20248;-52
2022/05/02 06:44:46;;;;;;;12.30;7.82;;;15.50;99.90;;;;;;5091350;28;20207;-52
2022/05/02 06:47:25;;;;;;;11.52;7.40;;;15.70;99.90;;;;;;5072668;28;20251;-52
2022/05/02 06:49:58;;;;;;;9.18;7.40;;;15.40;99.90;;;;;;5072250;28;20197;-51
2022/05/02 06:52:32;;;;;;;8.73;7.30;;;15.30;99.90;;;;;;5071769;28;20205;-52
2022/05/02 06:55:08;;;;;;;10.02;7.38;;;15.40;99.90;;;;;;5084333;28;20268;-52
2022/05/02 06:57:48;;;;;;;13.57;8.10;;;16.10;99.90;;;;;;5092392;28;20285;-52
2022/05/02 07:00:20;;;;;;;9.80;7.38;;;16.60;99.90;;;;;;5092534;28;20208;-52
2022/05/02 07:03:22;;;;;;;9.35;6.93;;;16.80;99.90;;;;;;5091355;28;20250;-52
2022/05/02 07:06:05;;;;;;;10.10;7.43;;;16.90;99.90;;;;;;5092159;28;20612;-52
2022/05/02 07:08:43;;;;;;;8.10;6.60;;;17.40;99.90;;;;;;5089527;28;20204;-52
2022/05/02 07:11:19;;;;;;;11.43;7.13;;;17.10;99.90;;;;;;5071908;28;20266;-52
2022/05/02 07:14:02;;;;;;;12.70;7.50;;;17.00;99.90;;;;;;5070124;28;20434;-52
2022/05/02 07:16:32;;;;;;;10.93;7.38;;;17.00;99.90;;;;;;5065759;28;20302;-52
2022/05/02 07:19:23;;;;;;;8.82;7.00;;;16.40;99.90;;;;;;5055349;28;20205;-52
2022/05/02 07:21:56;;;;;;;9.35;6.85;;;16.20;99.90;;;;;;5050855;28;20255;-52
2022/05/02 07:24:42;;;;;;;9.30;7.65;;;16.30;99.90;;;;;;5051398;28;20243;-51
2022/05/02 07:27:22;;;;;;;7.93;7.00;;;16.30;99.90;;;;;;5053889;28;20617;-52
2022/05/02 07:29:51;;;;;;;8.60;7.70;;;17.10;99.90;;;;;;5068353;28;20277;-50
2022/05/02 07:32:24;;;;;;;8.75;7.30;;;17.70;99.90;;;;;;5070473;28;20236;-49
2022/05/02 07:34:55;;;;;;;10.57;7.82;;;18.50;99.90;;;;;;5070917;28;20216;-50
2022/05/02 07:37:24;;;;;;;10.85;7.68;;;18.70;99.90;;;;;;5071163;28;20224;-49
2022/05/02 07:39:55;;;;;;;8.82;7.05;;;18.40;99.90;;;;;;5071176;28;20219;-50
2022/05/02 07:42:25;;;;;;;9.38;7.28;;;18.30;99.90;;;;;;5069815;28;20197;-50
2022/05/02 07:44:56;;;;;;;9.30;7.45;;;18.50;99.90;;;;;;5070701;28;20212;-52
2022/05/02 07:47:28;;;;;;;9.05;7.47;;;18.60;99.90;;;;;;5065640;28;20294;-52
2022/05/02 07:49:58;;;;;;;8.23;7.40;;;18.90;99.90;;;;;;5066723;28;20215;-52
2022/05/02 07:52:27;;;;;;;8.88;7.20;;;18.90;99.90;;;;;;5068590;28;20609;-52
2022/05/02 07:55:01;;;;;;;18.88;8.43;;;18.90;99.90;;;;;;5069945;28;20208;-52
2022/05/02 07:57:36;;;;;;;9.48;7.28;;;19.20;99.90;;;;;;5069489;28;20229;-52
2022/05/02 08:00:07;;;;;;;10.65;7.78;;;19.30;99.90;;;;;;5069294;28;20209;-52
2022/05/02 08:02:36;;;;;;;8.57;7.57;;;19.10;99.90;;;;;;5069708;28;20717;-52
2022/05/02 08:05:06;;;;;;;10.18;8.02;;;18.80;99.90;;;;;;5069532;28;20205;-52
2022/05/02 08:07:36;;;;;;;9.60;7.05;;;18.60;99.90;;;;;;5069238;28;20236;-52
2022/05/02 08:10:41;;;;;;;10.50;7.35;;;18.60;99.90;;;;;;5069571;28;20569;-52
2022/05/02 08:13:22;;;;;;;8.52;7.00;;;18.50;99.90;;;;;;5068101;28;20258;-50
2022/05/02 08:15:56;;;;;;;9.45;7.40;;;18.40;99.90;;;;;;5068977;28;20232;-52
2022/05/02 08:18:55;;;;;;;8.23;7.32;;;18.40;99.90;;;;;;5069588;28;20219;-52
2022/05/02 08:21:28;;;;;;;9.70;7.25;;;18.50;99.90;;;;;;5069371;28;20220;-52
2022/05/02 08:27:16;;;;;;;10.20;7.32;;;18.40;99.90;;;;;;5068926;28;20225;-51
2022/05/02 08:30:03;;;;;;;8.68;6.85;;;18.50;99.90;;;;;;5069135;28;20617;-51
2022/05/02 08:32:41;;;;;;;14.40;7.70;;;18.50;99.90;;;;;;5068857;28;20721;-51
2022/05/02 08:35:13;;;;;;;10.20;7.00;;;18.50;99.90;;;;;;5069407;28;20204;-51
2022/05/02 08:38:09;;;;;;;8.25;6.75;;;18.60;99.90;;;;;;5065639;28;20274;-51
2022/05/02 08:41:22;;;;;;;8.82;6.95;;;18.50;99.90;;;;;;5069766;28;20254;-53
2022/05/02 08:44:38;;;;;;;11.98;8.02;;;18.60;99.90;;;;;;4962161;28;20298;-52
2022/05/02 08:47:48;;;;;;;8.27;7.30;;;18.60;99.90;;;;;;5058480;28;20646;-52
2022/05/02 08:50:35;;;;;;;8.73;7.28;;;18.50;99.90;;;;;;5069389;28;20588;-52
2022/05/02 08:53:37;;;;;;;13.30;7.65;;;18.50;99.90;;;;;;5067731;28;20279;-53
2022/05/02 08:56:33;;;;;;;9.55;7.47;;;18.60;99.90;;;;;;5068220;28;20228;-51
2022/05/02 08:59:48;;;;;;;11.48;7.43;;;18.60;99.90;;;;;;5069289;28;20217;-51
2022/05/02 09:02:50;;;;;;;9.25;7.00;;;18.80;99.90;;;;;;5069401;28;20235;-52
2022/05/02 09:05:59;;;;;;;9.98;6.90;;;18.90;99.90;;;;;;5068666;28;20853;-53
2022/05/02 09:09:03;;;;;;;7.40;6.68;;;18.90;99.90;;;;;;5020241;28;20669;-52
2022/05/02 09:11:48;;;;;;;10.15;7.25;;;18.90;99.90;;;;;;5068771;28;20212;-52
2022/05/02 09:14:52;;;;;;;9.13;6.82;;;18.90;99.40;;;;;;5069800;28;20209;-52
2022/05/02 09:18:05;;;;;;;10.77;7.13;;;18.90;99.90;;;;;;5070857;28;20238;-51
2022/05/02 09:21:08;;;;;;;10.95;7.72;;;18.90;99.90;;;;;;5071076;28;20216;-52
2022/05/02 09:24:12;;;;;;;10.55;7.60;;;18.80;99.90;;;;;;5015644;28;20220;-52
2022/05/02 09:27:13;;;;;;;8.23;7.07;;;18.90;99.90;;;;;;5053453;28;20233;-51
2022/05/02 09:30:26;;;;;;;11.80;7.32;;;19.00;99.90;;;;;;5072683;28;20205;-51
2022/05/02 09:33:30;;;;;;;9.00;7.72;;;19.10;99.90;;;;;;5058401;28;20231;-52
2022/05/02 09:36:06;;;;;;;10.05;8.10;;;19.10;99.90;;;;;;5048478;28;20229;-52
2022/05/02 09:38:51;;;;;;;10.32;7.97;;;19.10;99.90;;;;;;5072484;28;20209;-52
2022/05/02 09:41:49;;;;;;;11.57;8.32;;;19.10;99.90;;;;;;5072653;28;20244;-52
2022/05/02 09:50:54;;;;;;;9.45;7.35;;;18.90;99.90;;;;;;5065733;28;20601;-52
2022/05/02 09:53:37;;;;;;;10.45;7.43;;;18.90;99.90;;;;;;5071177;28;20235;-52
2022/05/02 09:59:07;;;;;;;11.25;8.05;;;19.10;99.90;;;;;;5069335;28;20232;-53
2022/05/02 10:01:39;;;;;;;11.68;8.02;;;19.20;99.90;;;;;;5072504;28;20212;-52
2022/05/02 10:04:30;;;;;;;10.85;8.13;;;19.20;99.90;;;;;;5071511;28;20208;-51
2022/05/02 10:07:06;;;;;;;10.35;8.68;;;19.30;99.90;;;;;;5071202;28;20247;-52
2022/05/02 10:10:11;;;;;;;10.68;8.60;;;19.40;99.90;;;;;;5071854;28;20274;-52
2022/05/02 10:12:47;;;;;;;11.40;8.17;;;19.30;99.60;;;;;;5033963;28;20454;-52
2022/05/02 10:15:50;;;;;;;14.25;7.95;;;19.00;99.30;;;;;;5072228;28;20608;-52
2022/05/02 10:18:36;;;;;;;10.15;8.32;;;18.70;99.90;;;;;;5020427;28;20212;-52
2022/05/02 10:21:09;;;;;;;9.45;8.13;;;18.60;99.90;;;;;;5072405;28;20204;-52
2022/05/02 10:23:53;;;;;;;10.15;8.50;;;18.50;99.90;;;;;;5070881;28;20204;-52
2022/05/02 10:26:32;;;;;;;15.88;8.98;;;18.70;99.90;;;;;;5071442;28;20225;-51
2022/05/02 10:29:25;;;;;;;10.18;8.27;;;18.60;99.90;;;;;;5070584;28;20201;-52
2022/05/02 10:32:03;;;;;;;12.35;7.88;;;18.50;99.90;;;;;;5060527;28;20213;-52
2022/05/02 10:34:34;;;;;;;9.63;7.90;;;18.70;99.90;;;;;;5071806;28;20216;-52
2022/05/02 10:37:06;;;;;;;8.90;7.90;;;18.80;99.40;;;;;;5071932;28;20580;-52
2022/05/02 10:39:46;;;;;;;9.65;7.75;;;18.70;99.30;;;;;;5070829;28;20209;-52
2022/05/02 10:42:19;;;;;;;10.55;8.50;;;18.90;99.10;;;;;;5068094;28;20288;-52
2022/05/02 10:44:56;;;;;;;10.57;7.97;;;18.80;97.90;;;;;;5068859;28;20209;-52
2022/05/02 10:47:27;;;;;;;10.07;8.00;;;18.80;98.60;;;;;;5071226;28;20243;-52
2022/05/02 10:50:08;;;;;;;13.85;8.35;;;18.70;96.70;;;;;;5071911;28;20270;-52
2022/05/02 10:52:54;;;;;;;11.73;7.28;;;18.60;96.90;;;;;;5071425;28;20213;-52
2022/05/02 10:55:27;;;;;;;10.07;7.82;;;18.50;97.20;;;;;;5071483;28;20261;-52
2022/05/02 10:58:01;;;;;;;8.43;7.55;;;18.70;97.40;;;;;;5069180;28;20205;-52
2022/05/02 11:00:30;;;;;;;10.40;7.70;;;18.90;97.80;;;;;;5070125;28;20204;-52
2022/05/02 11:03:25;;;;;;;9.85;7.70;;;18.90;97.20;;;;;;5071420;28;20288;-52
2022/05/02 11:06:07;;;;;;;9.65;7.60;;;18.90;96.90;;;;;;5070804;28;20267;-52
2022/05/02 11:08:42;;;;;;;10.15;7.50;;;18.80;97.20;;;;;;5070684;28;20266;-52
2022/05/02 11:11:23;;;;;;;9.27;7.53;;;18.80;98.10;;;;;;5071418;28;20658;-52
2022/05/02 11:13:58;;;;;;;9.63;8.02;;;18.80;97.50;;;;;;5070422;28;20240;-52
2022/05/02 11:16:28;;;;;;;9.05;7.70;;;18.70;96.40;;;;;;5071307;28;20232;-52
2022/05/02 11:22:15;;;;;;;11.52;7.90;;;19.00;95.80;;;;;;5069463;28;20209;-52
2022/05/02 11:24:49;;;;;;;9.63;7.10;;;19.20;96.60;;;;;;5068878;28;20217;-52
2022/05/02 11:27:28;;;;;;;8.10;6.70;;;19.40;95.80;;;;;;5070177;28;20708;-51
2022/05/02 11:30:06;;;;;;;9.43;7.78;;;19.50;95.80;;;;;;5070512;28;20204;-52
2022/05/02 11:33:05;;;;;;;10.43;7.10;;;19.80;94.70;;;;;;5069253;28;20209;-51
2022/05/02 11:35:35;;;;;;;9.50;8.48;;;19.80;96.20;;;;;;5070169;28;20213;-52
2022/05/02 11:38:12;;;;;;;9.38;7.15;;;19.60;94.20;;;;;;5070525;28;20208;-52
2022/05/02 11:40:46;;;;;;;9.15;6.90;;;19.40;94.70;;;;;;5069587;28;20235;-53
2022/05/02 11:43:19;;;;;;;8.27;6.93;;;19.20;96.10;;;;;;5065997;28;20193;-52
2022/05/02 11:45:57;;;;;;;11.02;7.97;;;19.20;95.20;;;;;;5069905;28;20232;-52
2022/05/02 11:48:42;;;;;;;9.32;7.10;;;19.40;94.80;;;;;;5070326;28;20296;-52
2022/05/02 11:51:22;;;;;;;10.18;7.28;;;19.50;95.00;;;;;;5066392;28;20208;-52
2022/05/02 11:53:55;;;;;;;9.10;6.60;;;19.70;94.20;;;;;;5068612;28;20220;-52
2022/05/02 11:56:41;;;;;;;10.48;7.57;;;19.80;94.80;;;;;;5070639;28;20236;-52
2022/05/02 11:59:21;;;;;;;7.72;6.93;;;20.00;94.90;;;;;;5069490;28;20747;-52
2022/05/02 12:02:03;;;;;;;9.10;6.70;;;20.00;93.50;;;;;;5070064;28;20220;-52
2022/05/02 12:04:36;;;;;;;7.57;6.22;;;19.90;94.80;;;;;;5068298;28;20686;-52
2022/05/02 12:07:06;;;;;;;9.18;6.80;;;19.80;94.50;;;;;;5070220;28;20244;-51
2022/05/02 12:09:37;;;;;;;8.32;6.97;;;19.80;94.20;;;;;;5069936;28;20209;-52
2022/05/02 12:12:07;;;;;;;8.48;6.65;;;20.00;93.80;;;;;;5070029;28;20208;-52
2022/05/02 12:14:36;;;;;;;9.75;7.70;;;20.10;93.40;;;;;;5070473;28;20305;-51
2022/05/02 12:17:09;;;;;;;8.23;6.97;;;20.20;93.30;;;;;;5069694;28;20225;-52
2022/05/02 12:19:41;;;;;;;7.97;7.18;;;20.30;94.20;;;;;;5070354;28;20208;-51
2022/05/02 12:22:16;;;;;;;7.72;6.28;;;20.60;94.60;;;;;;5069686;28;20219;-52
2022/05/02 12:24:46;;;;;;;7.10;6.40;;;20.70;93.60;;;;;;5069836;28;20208;-52
2022/05/02 12:27:16;;;;;;;9.40;6.60;;;20.80;95.20;;;;;;5070241;28;20229;-51
2022/05/02 12:29:44;;;;;;;8.75;6.43;;;20.80;93.20;;;;;;5070105;28;20250;-52
2022/05/02 12:32:16;;;;;;;9.30;7.13;;;20.90;93.30;;;;;;5069414;28;20216;-51
2022/05/02 12:34:46;;;;;;;9.13;6.82;;;20.90;93.20;;;;;;5069741;28;20750;-52
2022/05/02 12:37:20;;;;;;;8.73;6.57;;;20.90;93.10;;;;;;5069789;28;20229;-52
2022/05/02 12:39:51;;;;;;;9.20;7.18;;;20.90;93.10;;;;;;5070260;28;20251;-52
2022/05/02 12:42:26;;;;;;;11.57;10.30;;;20.80;93.00;;;;;;5069596;28;20243;-52
2022/05/02 12:45:02;;;;;;;15.95;12.23;;;20.80;92.70;;;;;;5068165;28;20201;-52
2022/05/02 12:47:40;;;;;;;16.95;13.95;;;20.80;94.50;;;;;;5069526;28;20282;-52
2022/05/02 12:50:13;;;;;;;13.15;10.05;;;21.00;94.10;;;;;;5069694;28;20669;-52
2022/05/02 12:52:46;;;;;;;8.20;7.13;;;21.00;93.30;;;;;;5068909;28;20608;-52
2022/05/02 12:55:16;;;;;;;15.07;10.90;;;20.70;92.70;;;;;;5064307;28;20221;-53
2022/05/02 13:00:40;;;;;;;7.13;6.43;;;20.60;93.30;;;;;;5069307;28;20212;-52
2022/05/02 13:03:21;;;;;;;8.18;6.35;;;20.70;93.10;;;;;;5072076;28;20212;-52
2022/05/02 13:05:55;;;;;;;7.93;6.68;;;20.70;94.00;;;;;;5073445;28;20232;-52
2022/05/02 13:08:33;;;;;;;8.90;6.50;;;20.80;93.20;;;;;;5072558;28;20249;-52
2022/05/02 13:11:07;;;;;;;9.10;6.50;;;21.00;94.20;;;;;;5072464;28;20685;-51
2022/05/02 13:13:47;;;;;;;8.13;6.80;;;21.00;93.10;;;;;;5072043;28;20263;-52
2022/05/02 13:16:26;;;;;;;9.25;6.65;;;20.90;92.90;;;;;;5072669;28;20294;-52
2022/05/02 13:18:58;;;;;;;7.80;6.80;;;20.90;93.10;;;;;;5070379;28;20240;-52
2022/05/02 13:21:27;;;;;;;8.43;7.05;;;20.80;93.00;;;;;;5073027;28;20224;-52
2022/05/02 13:23:59;;;;;;;9.02;7.28;;;20.70;93.20;;;;;;5072869;28;20201;-52
2022/05/02 13:26:44;;;;;;;8.07;6.70;;;20.60;92.80;;;;;;5072649;28;20239;-52
2022/05/02 13:29:35;;;;;;;7.70;6.50;;;20.60;93.60;;;;;;5072817;28;20197;-52
2022/05/02 13:32:05;;;;;;;7.10;6.28;;;20.50;93.20;;;;;;5059096;28;20216;-52
2022/05/02 13:35:01;;;;;;;7.07;6.28;;;20.50;92.90;;;;;;5072640;28;20370;-52
2022/05/02 13:37:41;;;;;;;7.15;6.45;;;20.50;92.60;;;;;;5062992;28;20771;-52
2022/05/02 13:40:11;;;;;;;6.93;6.25;;;20.50;93.30;;;;;;5073569;28;20816;-51
2022/05/02 13:42:52;;;;;;;7.85;6.82;;;20.50;93.30;;;;;;5072651;28;20212;-51
2022/05/02 13:45:35;;;;;;;9.07;6.30;;;20.50;93.00;;;;;;5073108;28;20247;-52
2022/05/02 13:48:15;;;;;;;9.35;6.28;;;20.50;93.10;;;;;;5073078;28;20208;-52